sensor_id;sensor_type;location;lat;lon;timestamp;P1;durP1;ratioP1;P2;durP2;ratioP2
2173;SDS011;1093;51.424;11.764;2023-08-12T00:01:37;7.83;;;5.40;;
2173;SDS011;1093;51.424;11.764;2023-08-12T00:04:04;9.73;;;5.00;;
2173;SDS011;1093;51.424;11.764;2023-08-12T00:06:31;6.97;;;4.60;;
2173;SDS011;1093;51.424;11.764;2023-08-12T00:08:58;5.70;;;4.90;;
2173;SDS011;1093;51.424;11.764;2023-08-12T00:11:25;6.13;;;4.93;;
2173;SDS011;1093;51.424;11.764;2023-08-12T00:13:51;8.00;;;5.10;;
2173;SDS011;1093;51.424;11.764;2023-08-12T00:16:18;5.13;;;4.60;;
2173;SDS011;1093;51.424;11.764;2023-08-12T00:18:46;12.37;;;5.93;;
2173;SDS011;1093;51.424;11.764;2023-08-12T00:21:13;7.93;;;5.30;;
2173;SDS011;1093;51.424;11.764;2023-08-12T00:23:40;6.60;;;5.10;;
2173;SDS011;1093;51.424;11.764;2023-08-12T00:26:08;6.50;;;5.63;;
2173;SDS011;1093;51.424;11.764;2023-08-12T00:28:35;6.87;;;5.07;;
2173;SDS011;1093;51.424;11.764;2023-08-12T00:31:02;6.20;;;4.13;;
2173;SDS011;1093;51.424;11.764;2023-08-12T00:33:29;9.73;;;5.83;;
2173;SDS011;1093;51.424;11.764;2023-08-12T00:35:57;7.80;;;5.30;;
2173;SDS011;1093;51.424;11.764;2023-08-12T00:38:24;6.40;;;5.57;;
2173;SDS011;1093;51.424;11.764;2023-08-12T00:40:52;9.83;;;5.07;;
2173;SDS011;1093;51.424;11.764;2023-08-12T00:43:18;6.63;;;4.50;;
2173;SDS011;1093;51.424;11.764;2023-08-12T00:45:44;7.73;;;5.13;;
2173;SDS011;1093;51.424;11.764;2023-08-12T00:48:11;7.50;;;4.80;;
2173;SDS011;1093;51.424;11.764;2023-08-12T00:50:39;5.17;;;4.67;;
2173;SDS011;1093;51.424;11.764;2023-08-12T00:53:07;12.50;;;5.13;;
2173;SDS011;1093;51.424;11.764;2023-08-12T00:55:36;6.93;;;4.00;;
2173;SDS011;1093;51.424;11.764;2023-08-12T00:58:03;16.27;;;4.97;;
2173;SDS011;1093;51.424;11.764;2023-08-12T01:00:30;10.03;;;5.40;;
2173;SDS011;1093;51.424;11.764;2023-08-12T01:02:57;7.17;;;4.97;;
2173;SDS011;1093;51.424;11.764;2023-08-12T01:05:25;11.03;;;5.77;;
2173;SDS011;1093;51.424;11.764;2023-08-12T01:07:52;4.87;;;4.37;;
2173;SDS011;1093;51.424;11.764;2023-08-12T01:10:22;13.80;;;5.10;;
2173;SDS011;1093;51.424;11.764;2023-08-12T01:12:54;6.93;;;5.20;;
2173;SDS011;1093;51.424;11.764;2023-08-12T01:15:30;7.63;;;5.67;;
2173;SDS011;1093;51.424;11.764;2023-08-12T01:17:57;8.67;;;5.30;;
2173;SDS011;1093;51.424;11.764;2023-08-12T01:20:26;9.27;;;5.60;;
2173;SDS011;1093;51.424;11.764;2023-08-12T01:22:56;7.70;;;5.50;;
2173;SDS011;1093;51.424;11.764;2023-08-12T01:25:26;8.77;;;6.67;;
2173;SDS011;1093;51.424;11.764;2023-08-12T01:27:53;9.03;;;5.00;;
2173;SDS011;1093;51.424;11.764;2023-08-12T01:30:21;7.23;;;5.33;;
2173;SDS011;1093;51.424;11.764;2023-08-12T01:32:49;13.63;;;5.73;;
2173;SDS011;1093;51.424;11.764;2023-08-12T01:35:23;8.03;;;5.60;;
2173;SDS011;1093;51.424;11.764;2023-08-12T01:37:56;11.47;;;5.70;;
2173;SDS011;1093;51.424;11.764;2023-08-12T01:40:26;9.40;;;5.90;;
2173;SDS011;1093;51.424;11.764;2023-08-12T01:42:55;7.70;;;5.03;;
2173;SDS011;1093;51.424;11.764;2023-08-12T01:45:22;9.63;;;5.23;;
2173;SDS011;1093;51.424;11.764;2023-08-12T01:47:49;8.27;;;5.47;;
2173;SDS011;1093;51.424;11.764;2023-08-12T01:50:16;8.37;;;5.90;;
2173;SDS011;1093;51.424;11.764;2023-08-12T01:52:44;9.50;;;5.67;;
2173;SDS011;1093;51.424;11.764;2023-08-12T01:55:10;8.97;;;5.90;;
2173;SDS011;1093;51.424;11.764;2023-08-12T01:57:39;7.27;;;5.27;;
2173;SDS011;1093;51.424;11.764;2023-08-12T02:00:06;8.77;;;6.60;;
2173;SDS011;1093;51.424;11.764;2023-08-12T02:02:33;18.60;;;7.00;;
2173;SDS011;1093;51.424;11.764;2023-08-12T02:05:00;11.57;;;6.30;;
2173;SDS011;1093;51.424;11.764;2023-08-12T02:07:27;7.03;;;6.33;;
2173;SDS011;1093;51.424;11.764;2023-08-12T02:09:54;10.13;;;5.30;;
2173;SDS011;1093;51.424;11.764;2023-08-12T02:12:20;9.90;;;6.63;;
2173;SDS011;1093;51.424;11.764;2023-08-12T02:14:49;11.30;;;6.13;;
2173;SDS011;1093;51.424;11.764;2023-08-12T02:17:16;11.73;;;6.40;;
2173;SDS011;1093;51.424;11.764;2023-08-12T02:19:43;8.97;;;6.47;;
2173;SDS011;1093;51.424;11.764;2023-08-12T02:22:10;8.33;;;5.93;;
2173;SDS011;1093;51.424;11.764;2023-08-12T02:24:36;6.70;;;6.00;;
2173;SDS011;1093;51.424;11.764;2023-08-12T02:27:03;15.80;;;6.73;;
2173;SDS011;1093;51.424;11.764;2023-08-12T02:29:31;13.00;;;7.00;;
2173;SDS011;1093;51.424;11.764;2023-08-12T02:31:59;7.60;;;6.20;;
2173;SDS011;1093;51.424;11.764;2023-08-12T02:34:26;11.43;;;6.10;;
2173;SDS011;1093;51.424;11.764;2023-08-12T02:36:53;8.13;;;6.90;;
2173;SDS011;1093;51.424;11.764;2023-08-12T02:39:20;10.10;;;6.57;;
2173;SDS011;1093;51.424;11.764;2023-08-12T02:41:47;11.40;;;7.90;;
2173;SDS011;1093;51.424;11.764;2023-08-12T02:44:14;12.30;;;7.20;;
2173;SDS011;1093;51.424;11.764;2023-08-12T02:46:40;7.90;;;6.17;;
2173;SDS011;1093;51.424;11.764;2023-08-12T02:49:08;7.20;;;6.30;;
2173;SDS011;1093;51.424;11.764;2023-08-12T02:51:35;8.90;;;5.87;;
2173;SDS011;1093;51.424;11.764;2023-08-12T02:54:02;13.50;;;6.80;;
2173;SDS011;1093;51.424;11.764;2023-08-12T02:56:29;9.33;;;6.50;;
2173;SDS011;1093;51.424;11.764;2023-08-12T02:58:56;6.90;;;5.90;;
2173;SDS011;1093;51.424;11.764;2023-08-12T03:01:23;9.30;;;7.43;;
2173;SDS011;1093;51.424;11.764;2023-08-12T03:03:50;15.80;;;6.80;;
2173;SDS011;1093;51.424;11.764;2023-08-12T03:06:18;9.37;;;6.83;;
2173;SDS011;1093;51.424;11.764;2023-08-12T03:08:46;10.87;;;6.60;;
2173;SDS011;1093;51.424;11.764;2023-08-12T03:11:13;9.17;;;7.03;;
2173;SDS011;1093;51.424;11.764;2023-08-12T03:13:43;14.07;;;8.13;;
2173;SDS011;1093;51.424;11.764;2023-08-12T03:16:11;12.70;;;7.63;;
2173;SDS011;1093;51.424;11.764;2023-08-12T03:18:39;9.90;;;7.90;;
2173;SDS011;1093;51.424;11.764;2023-08-12T03:21:06;9.37;;;7.43;;
2173;SDS011;1093;51.424;11.764;2023-08-12T03:23:37;10.00;;;7.83;;
2173;SDS011;1093;51.424;11.764;2023-08-12T03:26:04;14.80;;;8.10;;
2173;SDS011;1093;51.424;11.764;2023-08-12T03:28:33;16.87;;;7.30;;
2173;SDS011;1093;51.424;11.764;2023-08-12T03:31:00;11.93;;;7.03;;
2173;SDS011;1093;51.424;11.764;2023-08-12T03:33:27;9.03;;;6.83;;
2173;SDS011;1093;51.424;11.764;2023-08-12T03:35:54;12.00;;;8.60;;
2173;SDS011;1093;51.424;11.764;2023-08-12T03:38:21;14.33;;;8.70;;
2173;SDS011;1093;51.424;11.764;2023-08-12T03:40:57;7.97;;;7.00;;
2173;SDS011;1093;51.424;11.764;2023-08-12T03:43:24;9.80;;;8.23;;
2173;SDS011;1093;51.424;11.764;2023-08-12T03:45:51;7.63;;;6.73;;
2173;SDS011;1093;51.424;11.764;2023-08-12T03:48:18;8.00;;;7.13;;
2173;SDS011;1093;51.424;11.764;2023-08-12T03:50:45;11.60;;;7.40;;
2173;SDS011;1093;51.424;11.764;2023-08-12T03:53:12;7.80;;;7.00;;
2173;SDS011;1093;51.424;11.764;2023-08-12T03:55:39;13.73;;;7.57;;
2173;SDS011;1093;51.424;11.764;2023-08-12T03:58:08;10.70;;;7.40;;
2173;SDS011;1093;51.424;11.764;2023-08-12T04:00:35;11.00;;;7.10;;
2173;SDS011;1093;51.424;11.764;2023-08-12T04:03:07;11.20;;;7.87;;
2173;SDS011;1093;51.424;11.764;2023-08-12T04:05:34;10.83;;;7.90;;
2173;SDS011;1093;51.424;11.764;2023-08-12T04:08:01;9.20;;;8.07;;
2173;SDS011;1093;51.424;11.764;2023-08-12T04:10:28;10.67;;;7.90;;
2173;SDS011;1093;51.424;11.764;2023-08-12T04:12:56;9.10;;;7.13;;
2173;SDS011;1093;51.424;11.764;2023-08-12T04:15:26;12.17;;;7.90;;
2173;SDS011;1093;51.424;11.764;2023-08-12T04:17:53;9.43;;;6.87;;
2173;SDS011;1093;51.424;11.764;2023-08-12T04:20:19;8.47;;;7.60;;
2173;SDS011;1093;51.424;11.764;2023-08-12T04:22:47;11.77;;;6.53;;
2173;SDS011;1093;51.424;11.764;2023-08-12T04:25:14;8.57;;;6.67;;
2173;SDS011;1093;51.424;11.764;2023-08-12T04:27:40;15.50;;;8.10;;
2173;SDS011;1093;51.424;11.764;2023-08-12T04:30:08;8.17;;;7.33;;
2173;SDS011;1093;51.424;11.764;2023-08-12T04:32:36;11.90;;;7.80;;
2173;SDS011;1093;51.424;11.764;2023-08-12T04:35:03;11.30;;;7.73;;
2173;SDS011;1093;51.424;11.764;2023-08-12T04:37:30;8.17;;;6.80;;
2173;SDS011;1093;51.424;11.764;2023-08-12T04:39:58;12.07;;;7.10;;
2173;SDS011;1093;51.424;11.764;2023-08-12T04:42:25;9.33;;;6.83;;
2173;SDS011;1093;51.424;11.764;2023-08-12T04:44:52;10.90;;;7.80;;
2173;SDS011;1093;51.424;11.764;2023-08-12T04:47:19;8.97;;;7.40;;
2173;SDS011;1093;51.424;11.764;2023-08-12T04:49:49;7.90;;;6.97;;
2173;SDS011;1093;51.424;11.764;2023-08-12T04:52:16;9.57;;;6.87;;
2173;SDS011;1093;51.424;11.764;2023-08-12T04:54:45;9.43;;;7.23;;
2173;SDS011;1093;51.424;11.764;2023-08-12T04:57:13;10.67;;;7.63;;
2173;SDS011;1093;51.424;11.764;2023-08-12T04:59:40;8.70;;;7.80;;
2173;SDS011;1093;51.424;11.764;2023-08-12T05:02:09;9.90;;;8.27;;
2173;SDS011;1093;51.424;11.764;2023-08-12T05:04:36;10.70;;;7.70;;
2173;SDS011;1093;51.424;11.764;2023-08-12T05:07:04;12.13;;;7.90;;
2173;SDS011;1093;51.424;11.764;2023-08-12T05:09:31;10.13;;;8.80;;
2173;SDS011;1093;51.424;11.764;2023-08-12T05:11:58;9.37;;;8.47;;
2173;SDS011;1093;51.424;11.764;2023-08-12T05:14:25;13.53;;;10.67;;
2173;SDS011;1093;51.424;11.764;2023-08-12T05:16:51;12.90;;;9.10;;
2173;SDS011;1093;51.424;11.764;2023-08-12T05:19:18;10.60;;;9.23;;
2173;SDS011;1093;51.424;11.764;2023-08-12T05:21:45;12.87;;;8.93;;
2173;SDS011;1093;51.424;11.764;2023-08-12T05:24:13;14.40;;;8.80;;
2173;SDS011;1093;51.424;11.764;2023-08-12T05:26:40;16.57;;;8.60;;
2173;SDS011;1093;51.424;11.764;2023-08-12T05:29:07;9.90;;;8.90;;
2173;SDS011;1093;51.424;11.764;2023-08-12T05:31:34;13.13;;;8.77;;
2173;SDS011;1093;51.424;11.764;2023-08-12T05:34:01;10.70;;;8.30;;
2173;SDS011;1093;51.424;11.764;2023-08-12T05:36:28;9.83;;;8.40;;
2173;SDS011;1093;51.424;11.764;2023-08-12T05:38:56;9.90;;;8.47;;
2173;SDS011;1093;51.424;11.764;2023-08-12T05:41:24;9.03;;;8.13;;
2173;SDS011;1093;51.424;11.764;2023-08-12T05:43:52;12.87;;;10.50;;
2173;SDS011;1093;51.424;11.764;2023-08-12T05:46:19;17.53;;;9.00;;
2173;SDS011;1093;51.424;11.764;2023-08-12T05:48:46;9.10;;;8.23;;
2173;SDS011;1093;51.424;11.764;2023-08-12T05:51:12;9.30;;;8.30;;
2173;SDS011;1093;51.424;11.764;2023-08-12T05:53:39;12.30;;;8.27;;
2173;SDS011;1093;51.424;11.764;2023-08-12T05:56:06;9.93;;;8.60;;
2173;SDS011;1093;51.424;11.764;2023-08-12T05:58:34;14.00;;;8.63;;
2173;SDS011;1093;51.424;11.764;2023-08-12T06:01:01;10.63;;;8.47;;
2173;SDS011;1093;51.424;11.764;2023-08-12T06:03:28;12.63;;;10.00;;
2173;SDS011;1093;51.424;11.764;2023-08-12T06:05:55;15.67;;;9.40;;
2173;SDS011;1093;51.424;11.764;2023-08-12T06:08:22;16.83;;;9.20;;
2173;SDS011;1093;51.424;11.764;2023-08-12T06:10:49;15.60;;;8.87;;
2173;SDS011;1093;51.424;11.764;2023-08-12T06:13:15;11.87;;;9.60;;
2173;SDS011;1093;51.424;11.764;2023-08-12T06:15:43;14.93;;;8.93;;
2173;SDS011;1093;51.424;11.764;2023-08-12T06:18:10;10.03;;;9.10;;
2173;SDS011;1093;51.424;11.764;2023-08-12T06:20:37;9.97;;;8.07;;
2173;SDS011;1093;51.424;11.764;2023-08-12T06:23:04;9.80;;;7.80;;
2173;SDS011;1093;51.424;11.764;2023-08-12T06:25:30;9.73;;;8.37;;
2173;SDS011;1093;51.424;11.764;2023-08-12T06:27:57;8.10;;;7.00;;
2173;SDS011;1093;51.424;11.764;2023-08-12T06:30:24;10.63;;;8.30;;
2173;SDS011;1093;51.424;11.764;2023-08-12T06:32:53;10.43;;;8.50;;
2173;SDS011;1093;51.424;11.764;2023-08-12T06:35:19;8.57;;;7.37;;
2173;SDS011;1093;51.424;11.764;2023-08-12T06:37:46;10.70;;;9.30;;
2173;SDS011;1093;51.424;11.764;2023-08-12T06:40:13;7.77;;;6.70;;
2173;SDS011;1093;51.424;11.764;2023-08-12T06:42:40;11.73;;;7.33;;
2173;SDS011;1093;51.424;11.764;2023-08-12T06:45:07;9.83;;;8.83;;
2173;SDS011;1093;51.424;11.764;2023-08-12T06:47:35;8.73;;;7.83;;
2173;SDS011;1093;51.424;11.764;2023-08-12T06:50:03;8.60;;;7.80;;
2173;SDS011;1093;51.424;11.764;2023-08-12T06:52:31;11.67;;;8.27;;
2173;SDS011;1093;51.424;11.764;2023-08-12T06:54:57;12.80;;;8.43;;
2173;SDS011;1093;51.424;11.764;2023-08-12T06:57:24;9.47;;;8.50;;
2173;SDS011;1093;51.424;11.764;2023-08-12T06:59:51;7.60;;;6.80;;
2173;SDS011;1093;51.424;11.764;2023-08-12T07:02:18;9.20;;;8.00;;
2173;SDS011;1093;51.424;11.764;2023-08-12T07:04:45;8.13;;;7.20;;
2173;SDS011;1093;51.424;11.764;2023-08-12T07:07:14;6.60;;;6.03;;
2173;SDS011;1093;51.424;11.764;2023-08-12T07:09:40;6.60;;;6.00;;
2173;SDS011;1093;51.424;11.764;2023-08-12T07:12:07;7.03;;;6.33;;
2173;SDS011;1093;51.424;11.764;2023-08-12T07:14:34;8.83;;;6.70;;
2173;SDS011;1093;51.424;11.764;2023-08-12T07:17:02;9.17;;;6.40;;
2173;SDS011;1093;51.424;11.764;2023-08-12T07:19:28;7.70;;;6.27;;
2173;SDS011;1093;51.424;11.764;2023-08-12T07:21:55;10.73;;;6.50;;
2173;SDS011;1093;51.424;11.764;2023-08-12T07:24:23;8.53;;;7.23;;
2173;SDS011;1093;51.424;11.764;2023-08-12T07:26:50;8.67;;;7.77;;
2173;SDS011;1093;51.424;11.764;2023-08-12T07:29:17;8.00;;;7.40;;
2173;SDS011;1093;51.424;11.764;2023-08-12T07:31:43;9.20;;;8.33;;
2173;SDS011;1093;51.424;11.764;2023-08-12T07:34:10;8.63;;;7.10;;
2173;SDS011;1093;51.424;11.764;2023-08-12T07:36:38;8.37;;;7.57;;
2173;SDS011;1093;51.424;11.764;2023-08-12T07:39:05;8.40;;;7.60;;
2173;SDS011;1093;51.424;11.764;2023-08-12T07:41:33;8.87;;;7.80;;
2173;SDS011;1093;51.424;11.764;2023-08-12T07:44:00;13.23;;;9.40;;
2173;SDS011;1093;51.424;11.764;2023-08-12T07:46:27;9.37;;;8.10;;
2173;SDS011;1093;51.424;11.764;2023-08-12T07:48:54;10.37;;;9.40;;
2173;SDS011;1093;51.424;11.764;2023-08-12T07:51:21;11.27;;;9.97;;
2173;SDS011;1093;51.424;11.764;2023-08-12T07:53:48;11.03;;;8.97;;
2173;SDS011;1093;51.424;11.764;2023-08-12T07:56:15;10.23;;;9.20;;
2173;SDS011;1093;51.424;11.764;2023-08-12T07:58:43;10.50;;;9.53;;
2173;SDS011;1093;51.424;11.764;2023-08-12T08:01:11;14.10;;;10.33;;
2173;SDS011;1093;51.424;11.764;2023-08-12T08:03:38;9.77;;;8.77;;
2173;SDS011;1093;51.424;11.764;2023-08-12T08:06:05;13.27;;;10.03;;
2173;SDS011;1093;51.424;11.764;2023-08-12T08:08:32;11.60;;;10.40;;
2173;SDS011;1093;51.424;11.764;2023-08-12T08:10:59;14.63;;;10.07;;
2173;SDS011;1093;51.424;11.764;2023-08-12T08:13:25;11.00;;;9.43;;
2173;SDS011;1093;51.424;11.764;2023-08-12T08:15:54;9.00;;;8.20;;
2173;SDS011;1093;51.424;11.764;2023-08-12T08:18:21;8.97;;;8.07;;
2173;SDS011;1093;51.424;11.764;2023-08-12T08:20:48;7.83;;;7.23;;
2173;SDS011;1093;51.424;11.764;2023-08-12T08:23:15;8.90;;;7.77;;
2173;SDS011;1093;51.424;11.764;2023-08-12T08:25:41;9.20;;;8.40;;
2173;SDS011;1093;51.424;11.764;2023-08-12T08:28:08;7.87;;;7.17;;
2173;SDS011;1093;51.424;11.764;2023-08-12T08:30:36;10.17;;;8.03;;
2173;SDS011;1093;51.424;11.764;2023-08-12T08:33:04;12.47;;;8.57;;
2173;SDS011;1093;51.424;11.764;2023-08-12T08:35:31;8.83;;;7.93;;
2173;SDS011;1093;51.424;11.764;2023-08-12T08:37:58;10.00;;;8.57;;
2173;SDS011;1093;51.424;11.764;2023-08-12T08:40:25;13.33;;;9.10;;
2173;SDS011;1093;51.424;11.764;2023-08-12T08:42:52;11.00;;;8.03;;
2173;SDS011;1093;51.424;11.764;2023-08-12T08:45:20;8.77;;;7.87;;
2173;SDS011;1093;51.424;11.764;2023-08-12T08:47:48;8.67;;;7.87;;
2173;SDS011;1093;51.424;11.764;2023-08-12T08:50:21;7.87;;;7.20;;
2173;SDS011;1093;51.424;11.764;2023-08-12T08:52:48;17.40;;;7.33;;
2173;SDS011;1093;51.424;11.764;2023-08-12T08:55:17;10.70;;;8.87;;
2173;SDS011;1093;51.424;11.764;2023-08-12T08:57:44;8.80;;;8.00;;
2173;SDS011;1093;51.424;11.764;2023-08-12T09:00:12;10.33;;;9.33;;
2173;SDS011;1093;51.424;11.764;2023-08-12T09:02:39;8.57;;;7.77;;
2173;SDS011;1093;51.424;11.764;2023-08-12T09:05:08;9.30;;;7.87;;
2173;SDS011;1093;51.424;11.764;2023-08-12T09:07:39;10.70;;;8.53;;
2173;SDS011;1093;51.424;11.764;2023-08-12T09:10:06;8.27;;;7.57;;
2173;SDS011;1093;51.424;11.764;2023-08-12T09:12:35;9.03;;;8.10;;
2173;SDS011;1093;51.424;11.764;2023-08-12T09:15:02;8.33;;;7.53;;
2173;SDS011;1093;51.424;11.764;2023-08-12T09:17:31;8.07;;;7.27;;
2173;SDS011;1093;51.424;11.764;2023-08-12T09:19:58;12.37;;;7.73;;
2173;SDS011;1093;51.424;11.764;2023-08-12T09:22:26;8.20;;;7.50;;
2173;SDS011;1093;51.424;11.764;2023-08-12T09:24:57;8.50;;;7.50;;
2173;SDS011;1093;51.424;11.764;2023-08-12T09:27:24;11.27;;;8.33;;
2173;SDS011;1093;51.424;11.764;2023-08-12T09:29:55;8.70;;;7.80;;
2173;SDS011;1093;51.424;11.764;2023-08-12T09:32:22;10.13;;;8.23;;
2173;SDS011;1093;51.424;11.764;2023-08-12T09:34:50;9.67;;;8.37;;
2173;SDS011;1093;51.424;11.764;2023-08-12T09:37:17;11.10;;;9.20;;
2173;SDS011;1093;51.424;11.764;2023-08-12T09:39:45;9.37;;;8.47;;
2173;SDS011;1093;51.424;11.764;2023-08-12T09:42:14;13.17;;;8.50;;
2173;SDS011;1093;51.424;11.764;2023-08-12T09:44:42;9.57;;;7.83;;
2173;SDS011;1093;51.424;11.764;2023-08-12T09:47:09;9.00;;;7.57;;
2173;SDS011;1093;51.424;11.764;2023-08-12T09:49:37;8.57;;;7.67;;
2173;SDS011;1093;51.424;11.764;2023-08-12T09:52:05;11.60;;;8.43;;
2173;SDS011;1093;51.424;11.764;2023-08-12T09:54:33;12.23;;;7.57;;
2173;SDS011;1093;51.424;11.764;2023-08-12T09:57:04;11.63;;;8.43;;
2173;SDS011;1093;51.424;11.764;2023-08-12T09:59:34;9.17;;;8.30;;
2173;SDS011;1093;51.424;11.764;2023-08-12T10:02:05;8.53;;;7.80;;
2173;SDS011;1093;51.424;11.764;2023-08-12T10:04:35;17.30;;;8.10;;
2173;SDS011;1093;51.424;11.764;2023-08-12T10:07:06;8.50;;;7.70;;
2173;SDS011;1093;51.424;11.764;2023-08-12T10:09:33;11.43;;;7.37;;
2173;SDS011;1093;51.424;11.764;2023-08-12T10:12:02;9.53;;;6.43;;
2173;SDS011;1093;51.424;11.764;2023-08-12T10:14:30;8.87;;;6.70;;
2173;SDS011;1093;51.424;11.764;2023-08-12T10:16:59;10.10;;;6.00;;
2173;SDS011;1093;51.424;11.764;2023-08-12T10:19:26;6.13;;;5.53;;
2173;SDS011;1093;51.424;11.764;2023-08-12T10:21:55;5.60;;;5.10;;
2173;SDS011;1093;51.424;11.764;2023-08-12T10:24:23;6.43;;;5.93;;
2173;SDS011;1093;51.424;11.764;2023-08-12T10:26:52;6.33;;;5.73;;
2173;SDS011;1093;51.424;11.764;2023-08-12T10:29:19;6.43;;;5.47;;
2173;SDS011;1093;51.424;11.764;2023-08-12T10:31:46;5.87;;;5.30;;
2173;SDS011;1093;51.424;11.764;2023-08-12T10:34:21;5.20;;;4.80;;
2173;SDS011;1093;51.424;11.764;2023-08-12T10:36:53;17.60;;;5.60;;
2173;SDS011;1093;51.424;11.764;2023-08-12T10:39:24;5.17;;;4.67;;
2173;SDS011;1093;51.424;11.764;2023-08-12T10:41:54;5.90;;;5.30;;
2173;SDS011;1093;51.424;11.764;2023-08-12T10:44:22;5.33;;;4.87;;
2173;SDS011;1093;51.424;11.764;2023-08-12T10:46:53;5.50;;;4.97;;
2173;SDS011;1093;51.424;11.764;2023-08-12T10:49:24;5.70;;;5.10;;
2173;SDS011;1093;51.424;11.764;2023-08-12T10:51:52;5.50;;;5.00;;
2173;SDS011;1093;51.424;11.764;2023-08-12T10:54:22;5.33;;;4.50;;
2173;SDS011;1093;51.424;11.764;2023-08-12T10:57:05;4.77;;;4.27;;
2173;SDS011;1093;51.424;11.764;2023-08-12T10:59:52;4.87;;;4.47;;
2173;SDS011;1093;51.424;11.764;2023-08-12T11:02:21;6.30;;;5.50;;
2173;SDS011;1093;51.424;11.764;2023-08-12T11:04:56;5.87;;;4.40;;
2173;SDS011;1093;51.424;11.764;2023-08-12T11:07:28;5.33;;;4.57;;
2173;SDS011;1093;51.424;11.764;2023-08-12T11:09:59;4.83;;;3.77;;
2173;SDS011;1093;51.424;11.764;2023-08-12T11:12:30;7.03;;;4.33;;
2173;SDS011;1093;51.424;11.764;2023-08-12T11:14:59;5.30;;;4.60;;
2173;SDS011;1093;51.424;11.764;2023-08-12T11:17:29;4.80;;;4.40;;
2173;SDS011;1093;51.424;11.764;2023-08-12T11:20:01;4.57;;;4.10;;
2173;SDS011;1093;51.424;11.764;2023-08-12T11:22:30;4.20;;;3.90;;
2173;SDS011;1093;51.424;11.764;2023-08-12T11:24:58;4.13;;;3.83;;
2173;SDS011;1093;51.424;11.764;2023-08-12T11:27:28;9.20;;;4.57;;
2173;SDS011;1093;51.424;11.764;2023-08-12T11:29:54;3.97;;;3.67;;
2173;SDS011;1093;51.424;11.764;2023-08-12T11:32:21;4.30;;;3.90;;
2173;SDS011;1093;51.424;11.764;2023-08-12T11:34:48;4.60;;;4.20;;
2173;SDS011;1093;51.424;11.764;2023-08-12T11:37:19;8.03;;;4.10;;
2173;SDS011;1093;51.424;11.764;2023-08-12T11:39:45;4.47;;;4.17;;
2173;SDS011;1093;51.424;11.764;2023-08-12T11:42:13;4.63;;;4.23;;
2173;SDS011;1093;51.424;11.764;2023-08-12T11:44:40;4.90;;;4.20;;
2173;SDS011;1093;51.424;11.764;2023-08-12T11:47:07;5.10;;;4.00;;
2173;SDS011;1093;51.424;11.764;2023-08-12T11:49:33;6.20;;;3.90;;
2173;SDS011;1093;51.424;11.764;2023-08-12T11:52:00;6.77;;;4.67;;
2173;SDS011;1093;51.424;11.764;2023-08-12T11:54:29;6.90;;;5.27;;
2173;SDS011;1093;51.424;11.764;2023-08-12T11:56:57;8.13;;;5.13;;
2173;SDS011;1093;51.424;11.764;2023-08-12T11:59:24;5.70;;;4.00;;
2173;SDS011;1093;51.424;11.764;2023-08-12T12:01:52;5.00;;;4.60;;
2173;SDS011;1093;51.424;11.764;2023-08-12T12:04:21;4.90;;;4.40;;
2173;SDS011;1093;51.424;11.764;2023-08-12T12:06:48;5.27;;;3.97;;
2173;SDS011;1093;51.424;11.764;2023-08-12T12:09:16;4.70;;;4.30;;
2173;SDS011;1093;51.424;11.764;2023-08-12T12:11:46;4.10;;;3.77;;
2173;SDS011;1093;51.424;11.764;2023-08-12T12:14:20;7.07;;;4.93;;
2173;SDS011;1093;51.424;11.764;2023-08-12T12:16:48;6.03;;;4.30;;
2173;SDS011;1093;51.424;11.764;2023-08-12T12:19:16;7.33;;;4.63;;
2173;SDS011;1093;51.424;11.764;2023-08-12T12:21:45;4.70;;;4.30;;
2173;SDS011;1093;51.424;11.764;2023-08-12T12:24:12;4.50;;;4.10;;
2173;SDS011;1093;51.424;11.764;2023-08-12T12:26:40;6.83;;;4.53;;
2173;SDS011;1093;51.424;11.764;2023-08-12T12:29:08;4.80;;;4.30;;
2173;SDS011;1093;51.424;11.764;2023-08-12T12:31:36;4.43;;;4.10;;
2173;SDS011;1093;51.424;11.764;2023-08-12T12:34:04;5.43;;;4.93;;
2173;SDS011;1093;51.424;11.764;2023-08-12T12:36:31;4.60;;;4.20;;
2173;SDS011;1093;51.424;11.764;2023-08-12T12:39:01;6.43;;;4.83;;
2173;SDS011;1093;51.424;11.764;2023-08-12T12:41:28;5.23;;;4.73;;
2173;SDS011;1093;51.424;11.764;2023-08-12T12:43:55;5.03;;;4.63;;
2173;SDS011;1093;51.424;11.764;2023-08-12T12:46:23;5.10;;;4.60;;
2173;SDS011;1093;51.424;11.764;2023-08-12T12:48:50;5.67;;;4.60;;
2173;SDS011;1093;51.424;11.764;2023-08-12T12:51:16;10.63;;;4.43;;
2173;SDS011;1093;51.424;11.764;2023-08-12T12:53:43;5.03;;;4.63;;
2173;SDS011;1093;51.424;11.764;2023-08-12T12:56:10;5.40;;;4.90;;
2173;SDS011;1093;51.424;11.764;2023-08-12T12:58:37;5.30;;;4.80;;
2173;SDS011;1093;51.424;11.764;2023-08-12T13:01:05;5.60;;;5.03;;
2173;SDS011;1093;51.424;11.764;2023-08-12T13:03:34;4.87;;;4.47;;
2173;SDS011;1093;51.424;11.764;2023-08-12T13:06:01;10.20;;;4.97;;
2173;SDS011;1093;51.424;11.764;2023-08-12T13:08:28;5.27;;;4.77;;
2173;SDS011;1093;51.424;11.764;2023-08-12T13:10:56;4.83;;;4.43;;
2173;SDS011;1093;51.424;11.764;2023-08-12T13:13:24;4.53;;;4.13;;
2173;SDS011;1093;51.424;11.764;2023-08-12T13:15:51;4.97;;;4.40;;
2173;SDS011;1093;51.424;11.764;2023-08-12T13:18:17;4.70;;;4.30;;
2173;SDS011;1093;51.424;11.764;2023-08-12T13:20:45;5.47;;;4.50;;
2173;SDS011;1093;51.424;11.764;2023-08-12T13:23:13;6.17;;;5.67;;
2173;SDS011;1093;51.424;11.764;2023-08-12T13:25:41;5.27;;;4.80;;
2173;SDS011;1093;51.424;11.764;2023-08-12T13:28:08;4.30;;;4.00;;
2173;SDS011;1093;51.424;11.764;2023-08-12T13:30:35;4.30;;;3.57;;
2173;SDS011;1093;51.424;11.764;2023-08-12T13:33:02;4.03;;;3.73;;
2173;SDS011;1093;51.424;11.764;2023-08-12T13:35:30;4.07;;;3.10;;
2173;SDS011;1093;51.424;11.764;2023-08-12T13:37:58;5.73;;;4.10;;
2173;SDS011;1093;51.424;11.764;2023-08-12T13:40:25;3.83;;;3.53;;
2173;SDS011;1093;51.424;11.764;2023-08-12T13:42:52;4.53;;;3.47;;
2173;SDS011;1093;51.424;11.764;2023-08-12T13:45:19;4.77;;;4.40;;
2173;SDS011;1093;51.424;11.764;2023-08-12T13:47:46;5.10;;;3.80;;
2173;SDS011;1093;51.424;11.764;2023-08-12T13:50:13;7.23;;;3.63;;
2173;SDS011;1093;51.424;11.764;2023-08-12T13:52:40;4.07;;;3.73;;
2173;SDS011;1093;51.424;11.764;2023-08-12T13:55:08;4.10;;;3.80;;
2173;SDS011;1093;51.424;11.764;2023-08-12T13:57:35;6.07;;;3.90;;
2173;SDS011;1093;51.424;11.764;2023-08-12T14:00:03;3.87;;;3.30;;
2173;SDS011;1093;51.424;11.764;2023-08-12T14:02:34;4.23;;;3.83;;
2173;SDS011;1093;51.424;11.764;2023-08-12T14:05:01;5.50;;;4.13;;
2173;SDS011;1093;51.424;11.764;2023-08-12T14:07:28;6.47;;;3.10;;
2173;SDS011;1093;51.424;11.764;2023-08-12T14:09:56;4.00;;;3.80;;
2173;SDS011;1093;51.424;11.764;2023-08-12T14:12:24;4.00;;;3.60;;
2173;SDS011;1093;51.424;11.764;2023-08-12T14:14:51;5.53;;;3.90;;
2173;SDS011;1093;51.424;11.764;2023-08-12T14:17:17;7.07;;;3.83;;
2173;SDS011;1093;51.424;11.764;2023-08-12T14:19:48;3.60;;;3.20;;
2173;SDS011;1093;51.424;11.764;2023-08-12T14:22:15;7.00;;;3.97;;
2173;SDS011;1093;51.424;11.764;2023-08-12T14:24:42;3.80;;;3.50;;
2173;SDS011;1093;51.424;11.764;2023-08-12T14:27:10;4.13;;;3.83;;
2173;SDS011;1093;51.424;11.764;2023-08-12T14:29:38;5.27;;;4.40;;
2173;SDS011;1093;51.424;11.764;2023-08-12T14:32:05;3.97;;;3.17;;
2173;SDS011;1093;51.424;11.764;2023-08-12T14:34:32;4.33;;;3.70;;
2173;SDS011;1093;51.424;11.764;2023-08-12T14:37:01;4.43;;;3.43;;
2173;SDS011;1093;51.424;11.764;2023-08-12T14:39:28;5.27;;;4.07;;
2173;SDS011;1093;51.424;11.764;2023-08-12T14:41:56;3.57;;;3.27;;
2173;SDS011;1093;51.424;11.764;2023-08-12T14:44:23;4.00;;;3.30;;
2173;SDS011;1093;51.424;11.764;2023-08-12T14:46:51;3.53;;;3.23;;
2173;SDS011;1093;51.424;11.764;2023-08-12T14:49:18;3.43;;;3.07;;
2173;SDS011;1093;51.424;11.764;2023-08-12T14:51:46;3.30;;;2.60;;
2173;SDS011;1093;51.424;11.764;2023-08-12T14:54:12;3.60;;;2.90;;
2173;SDS011;1093;51.424;11.764;2023-08-12T14:56:39;4.20;;;3.27;;
2173;SDS011;1093;51.424;11.764;2023-08-12T14:59:06;3.30;;;3.00;;
2173;SDS011;1093;51.424;11.764;2023-08-12T15:01:33;2.70;;;2.50;;